地図

経路データ

SID SEASON NUMBER BASIN SUBBASIN NAME ISO_TIME NATURE LAT LON WMO_WIND WMO_PRES WMO_AGENCY TRACK_TYPE DIST2LAND LANDFALL IFLAG USA_AGENCY USA_ATCF_ID USA_LAT USA_LON USA_RECORD USA_STATUS USA_WIND USA_PRES USA_SSHS USA_R34_NE USA_R34_SE USA_R34_SW USA_R34_NW USA_R50_NE USA_R50_SE USA_R50_SW USA_R50_NW USA_R64_NE USA_R64_SE USA_R64_SW USA_R64_NW USA_POCI USA_ROCI USA_RMW USA_EYE TOKYO_LAT TOKYO_LON TOKYO_GRADE TOKYO_WIND TOKYO_PRES TOKYO_R50_DIR TOKYO_R50_LONG TOKYO_R50_SHORT TOKYO_R30_DIR TOKYO_R30_LONG TOKYO_R30_SHORT TOKYO_LAND CMA_LAT CMA_LON CMA_CAT CMA_WIND CMA_PRES HKO_LAT HKO_LON HKO_CAT HKO_WIND HKO_PRES NEWDELHI_LAT NEWDELHI_LON NEWDELHI_GRADE NEWDELHI_WIND NEWDELHI_PRES NEWDELHI_CI NEWDELHI_DP NEWDELHI_POCI REUNION_LAT REUNION_LON REUNION_TYPE REUNION_WIND REUNION_PRES REUNION_TNUM REUNION_CI REUNION_RMW REUNION_R34_NE REUNION_R34_SE REUNION_R34_SW REUNION_R34_NW REUNION_R50_NE REUNION_R50_SE REUNION_R50_SW REUNION_R50_NW REUNION_R64_NE REUNION_R64_SE REUNION_R64_SW REUNION_R64_NW BOM_LAT BOM_LON BOM_TYPE BOM_WIND BOM_PRES BOM_TNUM BOM_CI BOM_RMW BOM_R34_NE BOM_R34_SE BOM_R34_SW BOM_R34_NW BOM_R50_NE BOM_R50_SE BOM_R50_SW BOM_R50_NW BOM_R64_NE BOM_R64_SE BOM_R64_SW BOM_R64_NW BOM_ROCI BOM_POCI BOM_EYE BOM_POS_METHOD BOM_PRES_METHOD NADI_LAT NADI_LON NADI_CAT NADI_WIND NADI_PRES WELLINGTON_LAT WELLINGTON_LON WELLINGTON_WIND WELLINGTON_PRES DS824_LAT DS824_LON DS824_STAGE DS824_WIND DS824_PRES TD9636_LAT TD9636_LON TD9636_STAGE TD9636_WIND TD9636_PRES TD9635_LAT TD9635_LON TD9635_WIND TD9635_PRES TD9635_ROCI NEUMANN_LAT NEUMANN_LON NEUMANN_CLASS NEUMANN_WIND NEUMANN_PRES MLC_LAT MLC_LON MLC_CLASS MLC_WIND MLC_PRES USA_GUST BOM_GUST BOM_GUST_PER REUNION_GUST REUNION_GUST_PER USA_SEAHGT USA_SEARAD_NE USA_SEARAD_SE USA_SEARAD_SW USA_SEARAD_NW STORM_SPEED STORM_DIR
1893042S15062 1893 6 SI MM NOT_NAMED 1893-02-11 00:00:00 TS -15.1000 61.5000 main 689 656 _________O____ -1 -15.1000 61.5000 TC 9 257
1893042S15062 1893 6 SI MM NOT_NAMED 1893-02-11 03:00:00 TS -15.2002 61.0401 main 650 618 _________P____ -1 -15.2002 61.0401 TC 9 257
1893042S15062 1893 6 SI MM NOT_NAMED 1893-02-11 06:00:00 TS -15.3000 60.6000 main 618 588 _________O____ -1 -15.3000 60.6000 TC 8 256
1893042S15062 1893 6 SI MM NOT_NAMED 1893-02-11 09:00:00 TS -15.3999 60.1925 main 588 560 _________P____ -1 -15.3999 60.1925 TC 8 255
1893042S15062 1893 6 SI MM NOT_NAMED 1893-02-11 12:00:00 TS -15.5000 59.8000 main 560 534 _________O____ -1 -15.5000 59.8000 TC 8 256
1893042S15062 1893 6 SI MM NOT_NAMED 1893-02-11 15:00:00 TS -15.5924 59.3999 main 534 511 _________P____ -1 -15.5924 59.3999 TC 8 255
1893042S15062 1893 6 SI MM NOT_NAMED 1893-02-11 18:00:00 TS -15.7000 59.0000 main 511 490 _________O____ -1 -15.7000 59.0000 TC 8 252
1893042S15062 1893 6 SI MM NOT_NAMED 1893-02-11 21:00:00 TS -15.8425 58.5775 main 490 461 _________P____ -1 -15.8425 58.5775 TC 8 249
1893042S15062 1893 6 SI MM NOT_NAMED 1893-02-12 00:00:00 TS -16.0000 58.2000 main 461 448 _________O____ -1 -16.0000 58.2000 TC 7 244
1893042S15062 1893 6 SI MM NOT_NAMED 1893-02-12 03:00:00 TS -16.1499 57.9274 main 448 425 _________P____ -1 -16.1499 57.9274 TC 6 238
1893042S15062 1893 6 SI MM NOT_NAMED 1893-02-12 06:00:00 TS -16.3000 57.7000 main 425 413 _________O____ -1 -16.3000 57.7000 TC 6 238
1893042S15062 1893 6 SI MM NOT_NAMED 1893-02-12 09:00:00 TS -16.4425 57.4425 main 414 392 _________P____ -1 -16.4425 57.4425 TC 6 238
1893042S15062 1893 6 SI MM NOT_NAMED 1893-02-12 12:00:00 TS -16.6000 57.2000 main 392 372 _________O____ -1 -16.6000 57.2000 TC 6 232
1893042S15062 1893 6 SI MM NOT_NAMED 1893-02-12 15:00:00 TS -16.7850 56.9775 main 372 354 _________P____ -1 -16.7850 56.9775 TC 6 224
1893042S15062 1893 6 SI MM NOT_NAMED 1893-02-12 18:00:00 TS -17.0000 56.8000 main 354 335 _________O____ -1 -17.0000 56.8000 TC 5 214
1893042S15062 1893 6 SI MM NOT_NAMED 1893-02-12 21:00:00 TS -17.2350 56.6625 main 335 305 _________P____ -1 -17.2350 56.6625 TC 5 201
1893042S15062 1893 6 SI MM NOT_NAMED 1893-02-13 00:00:00 TS -17.5000 56.6000 main 305 274 _________O____ -1 -17.5000 56.6000 TC 6 183
1893042S15062 1893 6 SI MM NOT_NAMED 1893-02-13 03:00:00 TS -17.8075 56.6125 main 274 239 _________P____ -1 -17.8075 56.6125 TC 6 171
1893042S15062 1893 6 SI MM NOT_NAMED 1893-02-13 06:00:00 TS -18.1000 56.7000 main 239 214 _________O____ -1 -18.1000 56.7000 TC 6 159
1893042S15062 1893 6 SI MM NOT_NAMED 1893-02-13 09:00:00 TS -18.3300 56.8200 main 214 186 _________P____ -1 -18.3300 56.8200 TC 5 145
1893042S15062 1893 6 SI MM NOT_NAMED 1893-02-13 12:00:00 TS -18.5000 57.0000 main 186 170 _________O____ -1 -18.5000 57.0000 TC 5 125
1893042S15062 1893 6 SI MM NOT_NAMED 1893-02-13 15:00:00 TS -18.6075 57.2351 main 170 156 _________P____ -1 -18.6075 57.2351 TC 5 113
1893042S15062 1893 6 SI MM NOT_NAMED 1893-02-13 18:00:00 TS -18.7000 57.5000 main 156 145 _________O____ -1 -18.7000 57.5000 TC 6 116
1893042S15062 1893 6 SI MM NOT_NAMED 1893-02-13 21:00:00 TS -18.8500 57.7649 main 134 124 _________P____ -1 -18.8500 57.7649 TC 6 122
1893042S15062 1893 6 SI MM NOT_NAMED 1893-02-14 00:00:00 TS -19.0000 58.0000 main 126 119 _________O____ -1 -19.0000 58.0000 TC 5 125
1893042S15062 1893 6 SI MM NOT_NAMED 1893-02-14 03:00:00 TS -19.1074 58.1576 main 123 113 _________P____ -1 -19.1074 58.1576 TC 3 125
1893042S15062 1893 6 SI MM NOT_NAMED 1893-02-14 06:00:00 TS -19.2000 58.3000 main 118 115 _________O____ -1 -19.2000 58.3000 TC 4 121
1893042S15062 1893 6 SI MM NOT_NAMED 1893-02-14 09:00:00 TS -19.3000 58.5000 main 122 122 _________P____ -1 -19.3000 58.5000 TC 4 118
1893042S15062 1893 6 SI MM NOT_NAMED 1893-02-14 12:00:00 TS -19.4000 58.7000 main 130 130 _________O____ -1 -19.4000 58.7000 TC 4 122
1893042S15062 1893 6 SI MM NOT_NAMED 1893-02-14 15:00:00 TS -19.5075 58.8575 main 142 137 _________P____ -1 -19.5075 58.8575 TC 3 125
1893042S15062 1893 6 SI MM NOT_NAMED 1893-02-14 18:00:00 TS -19.6000 59.0000 main 147 147 _________O____ -1 -19.6000 59.0000 TC 3 118
1893042S15062 1893 6 SI MM NOT_NAMED 1893-02-14 21:00:00 TS -19.6424 59.1276 main 156 156 _________P____ -1 -19.6424 59.1276 TC 3 110
1893042S15062 1893 6 SI MM NOT_NAMED 1893-02-15 00:00:00 TS -19.7000 59.3000 main 170 170 _________O____ -1 -19.7000 59.3000 TC 5 115
1893042S15062 1893 6 SI MM NOT_NAMED 1893-02-15 03:00:00 TS -19.8350 59.5700 main 196 193 _________P____ -1 -19.8350 59.5700 TC 6 118
1893042S15062 1893 6 SI MM NOT_NAMED 1893-02-15 06:00:00 TS -20.0000 59.9000 main 221 221 _________O____ -1 -20.0000 59.9000 TC 7 117
1893042S15062 1893 6 SI MM NOT_NAMED 1893-02-15 09:00:00 TS -20.1576 60.2575 main 261 261 _________P____ -1 -20.1576 60.2575 TC 7 115
1893042S15062 1893 6 SI MM NOT_NAMED 1893-02-15 12:00:00 TS -20.3000 60.6000 main 291 291 _________O____ -1 -20.3000 60.6000 TC 6 114
1893042S15062 1893 6 SI MM NOT_NAMED 1893-02-15 15:00:00 TS -20.4074 60.8576 main 323 323 _________P____ -1 -20.4074 60.8576 TC 5 113
1893042S15062 1893 6 SI MM NOT_NAMED 1893-02-15 18:00:00 TS -20.5000 61.1000 main 344 344 _________O____ -1 -20.5000 61.1000 TC 5 111
1893042S15062 1893 6 SI MM NOT_NAMED 1893-02-15 21:00:00 TS -20.5977 61.3849 main 376 376 _________P____ -1 -20.5977 61.3849 TC 6 110
1893042S15062 1893 6 SI MM NOT_NAMED 1893-02-16 00:00:00 TS -20.7000 61.7000 main 408 _________O____ -1 -20.7000 61.7000 TC 6 109

IBTrACS Databaseについて

本データベースは、米国NOAAが公開する1842年以降の世界の熱帯低気圧のベストトラックデータアーカイブInternational Best Track Archive for Climate Stewardship (IBTrACS)を、ウェブで閲覧しやすい形式に変換したものです。

最終更新日:2021-10-21